Time;durP1;ratioP1;P1;durP2;ratioP2;P2;SDS_P1;SDS_P2;PMS_P1;PMS_P2;Temp;Humidity;BMP_temperature;BMP_pressure;BME280_temperature;BME280_humidity;BME280_pressure;Samples;Min_cycle;Max_cycle;Signal;HPM_P1;HPM_P2
2021/10/25 00:00:41;;;;;;;10.10;6.70;;;13.20;99.90;;;;;;4972338;28;20246;-81
2021/10/25 00:03:08;;;;;;;10.37;6.70;;;13.20;99.90;;;;;;4983643;28;20234;-82
2021/10/25 00:05:36;;;;;;;9.07;6.97;;;13.10;99.90;;;;;;4971166;28;20286;-81
2021/10/25 00:08:04;;;;;;;11.87;7.80;;;13.10;99.90;;;;;;4982668;28;20639;-81
2021/10/25 00:10:31;;;;;;;13.20;7.40;;;13.10;99.90;;;;;;4972607;28;20207;-81
2021/10/25 00:12:59;;;;;;;13.47;7.60;;;13.00;99.90;;;;;;4973282;28;20277;-81
2021/10/25 00:15:26;;;;;;;9.30;6.73;;;13.00;99.90;;;;;;4973780;28;20199;-81
2021/10/25 00:17:53;;;;;;;9.97;6.93;;;13.00;99.90;;;;;;4979683;28;20229;-82
2021/10/25 00:20:21;;;;;;;11.03;6.93;;;13.10;99.90;;;;;;4988738;28;20289;-81
2021/10/25 00:22:49;;;;;;;9.03;6.70;;;13.00;99.90;;;;;;4972572;28;20313;-81
2021/10/25 00:25:16;;;;;;;13.53;7.07;;;13.00;99.90;;;;;;4991296;28;20198;-82
2021/10/25 00:27:43;;;;;;;13.63;6.87;;;13.00;99.90;;;;;;4983092;28;20195;-81
2021/10/25 00:30:11;;;;;;;10.20;6.23;;;12.90;99.90;;;;;;4985349;28;20262;-81
2021/10/25 00:32:38;;;;;;;11.97;6.57;;;13.00;99.90;;;;;;4975979;28;20289;-81
2021/10/25 00:35:06;;;;;;;11.13;6.43;;;12.90;99.90;;;;;;4991799;28;20194;-81
2021/10/25 00:37:33;;;;;;;11.87;5.67;;;12.80;99.90;;;;;;4991854;28;20288;-82
2021/10/25 00:40:02;;;;;;;11.23;5.73;;;12.80;99.90;;;;;;4982803;28;20688;-82
2021/10/25 00:42:29;;;;;;;10.40;5.67;;;12.80;99.90;;;;;;4977609;28;20261;-81
2021/10/25 00:44:55;;;;;;;10.87;5.87;;;12.80;99.90;;;;;;4988020;28;20707;-81
2021/10/25 00:47:22;;;;;;;14.07;5.57;;;12.70;99.90;;;;;;4977873;28;20225;-81
2021/10/25 00:49:49;;;;;;;11.83;5.50;;;12.80;99.90;;;;;;4983648;28;20289;-81
2021/10/25 00:52:18;;;;;;;13.57;5.57;;;12.80;99.90;;;;;;4984690;28;20292;-81
2021/10/25 00:54:45;;;;;;;10.63;5.97;;;12.90;99.90;;;;;;4978448;28;20289;-82
2021/10/25 00:57:14;;;;;;;13.70;5.60;;;12.90;99.90;;;;;;4976216;28;20578;-81
2021/10/25 00:59:41;;;;;;;11.23;5.13;;;12.90;99.90;;;;;;4979158;28;20315;-81
2021/10/25 01:02:08;;;;;;;8.70;5.10;;;12.90;99.90;;;;;;4981636;28;20254;-82
2021/10/25 01:04:35;;;;;;;9.47;5.47;;;12.90;99.90;;;;;;4986038;28;20281;-81
2021/10/25 01:07:02;;;;;;;10.30;4.93;;;13.00;99.90;;;;;;4975534;28;20789;-81
2021/10/25 01:09:30;;;;;;;15.17;5.20;;;13.00;99.90;;;;;;4987328;28;20195;-82
2021/10/25 01:11:58;;;;;;;18.90;5.27;;;13.00;99.90;;;;;;4980789;28;20206;-81
2021/10/25 01:14:26;;;;;;;13.70;5.40;;;13.00;99.90;;;;;;4979810;28;20199;-82
2021/10/25 01:16:53;;;;;;;8.90;4.83;;;13.00;99.90;;;;;;4988244;28;20229;-82
2021/10/25 01:19:20;;;;;;;11.83;5.20;;;13.00;99.90;;;;;;4977256;28;20204;-81
2021/10/25 01:21:49;;;;;;;11.77;5.23;;;13.00;99.90;;;;;;4978868;28;20230;-81
2021/10/25 01:24:16;;;;;;;10.07;5.03;;;13.00;99.90;;;;;;4981714;28;20258;-82
2021/10/25 01:26:43;;;;;;;14.73;6.20;;;13.10;99.90;;;;;;4985476;28;20208;-82
2021/10/25 01:29:10;;;;;;;15.83;6.00;;;13.00;99.90;;;;;;4975250;28;20241;-81
2021/10/25 01:31:37;;;;;;;13.97;5.30;;;13.10;99.90;;;;;;4986035;28;20294;-81
2021/10/25 01:34:06;;;;;;;12.77;5.23;;;13.10;99.90;;;;;;4993208;28;20635;-82
2021/10/25 01:36:38;;;;;;;11.50;4.33;;;13.10;99.90;;;;;;4992867;28;20225;-82
2021/10/25 01:39:14;;;;;;;9.23;4.70;;;13.10;99.90;;;;;;4976486;28;20210;-82
2021/10/25 01:41:44;;;;;;;11.47;4.23;;;13.10;99.90;;;;;;4993052;28;20251;-81
2021/10/25 01:44:13;;;;;;;13.70;4.53;;;13.10;99.90;;;;;;4993756;28;20210;-81
2021/10/25 01:46:43;;;;;;;10.27;4.47;;;13.10;99.90;;;;;;4992011;28;20592;-81
2021/10/25 01:49:11;;;;;;;9.87;4.63;;;13.10;99.90;;;;;;4985710;28;20256;-81
2021/10/25 01:51:37;;;;;;;10.80;5.13;;;13.10;99.90;;;;;;4990278;28;20210;-81
2021/10/25 01:54:04;;;;;;;10.53;4.77;;;13.10;99.90;;;;;;4985556;28;20643;-81
2021/10/25 01:56:33;;;;;;;10.47;4.90;;;13.20;99.90;;;;;;4981271;28;20301;-81
2021/10/25 01:59:00;;;;;;;12.23;4.83;;;13.20;99.90;;;;;;4977977;28;20214;-81
2021/10/25 02:01:27;;;;;;;9.63;4.80;;;13.10;99.90;;;;;;4984855;28;20229;-81
2021/10/25 02:03:54;;;;;;;13.07;5.33;;;13.10;99.90;;;;;;4986764;28;20660;-81
2021/10/25 02:06:21;;;;;;;11.53;5.13;;;13.20;99.90;;;;;;4975095;28;20620;-81
2021/10/25 02:08:48;;;;;;;12.93;5.03;;;13.20;99.90;;;;;;4990886;28;20236;-81
2021/10/25 02:11:16;;;;;;;11.33;5.50;;;13.10;99.90;;;;;;4984455;28;20230;-82
2021/10/25 02:13:45;;;;;;;11.07;5.40;;;13.20;99.90;;;;;;4978456;28;20286;-81
2021/10/25 02:16:12;;;;;;;15.23;5.40;;;13.20;99.90;;;;;;4986117;28;20243;-81
2021/10/25 02:18:40;;;;;;;12.23;5.67;;;13.10;99.90;;;;;;4974757;28;20206;-81
2021/10/25 02:21:08;;;;;;;15.67;6.30;;;13.30;99.90;;;;;;4982167;28;20768;-82
2021/10/25 02:23:35;;;;;;;13.83;6.30;;;13.20;99.90;;;;;;4986076;28;20241;-81
2021/10/25 02:26:02;;;;;;;11.43;6.40;;;13.20;99.90;;;;;;4990752;28;20240;-82
2021/10/25 02:28:30;;;;;;;10.80;6.00;;;13.10;99.90;;;;;;4975895;28;20642;-81
2021/10/25 02:30:58;;;;;;;12.63;6.63;;;13.20;99.90;;;;;;4978785;28;20259;-81
2021/10/25 02:33:26;;;;;;;14.27;6.73;;;13.10;99.90;;;;;;4978483;28;20233;-82
2021/10/25 02:35:53;;;;;;;15.63;7.40;;;13.20;99.90;;;;;;4988781;28;20284;-81
2021/10/25 02:38:20;;;;;;;14.80;6.60;;;13.20;99.90;;;;;;4990403;28;20206;-81
2021/10/25 02:40:47;;;;;;;17.17;7.00;;;13.20;99.90;;;;;;4986560;28;20316;-82
2021/10/25 02:43:14;;;;;;;17.33;7.00;;;13.30;99.90;;;;;;4985621;28;20245;-81
2021/10/25 02:45:41;;;;;;;18.70;7.30;;;13.20;99.90;;;;;;4983063;28;20203;-82
2021/10/25 02:48:11;;;;;;;14.90;7.30;;;13.20;99.90;;;;;;4977779;28;20302;-81
2021/10/25 02:50:39;;;;;;;16.37;7.23;;;13.30;99.90;;;;;;4986453;28;20233;-81
2021/10/25 02:53:07;;;;;;;15.00;7.83;;;13.30;99.90;;;;;;4986736;28;20305;-82
2021/10/25 02:55:35;;;;;;;18.60;7.40;;;13.30;99.90;;;;;;4984120;28;20202;-81
2021/10/25 02:58:02;;;;;;;17.23;7.73;;;13.30;99.90;;;;;;4989476;28;20639;-82
2021/10/25 03:00:29;;;;;;;16.00;7.63;;;13.30;99.90;;;;;;4987771;28;20206;-82
2021/10/25 03:02:57;;;;;;;19.73;8.03;;;13.30;99.90;;;;;;4976757;28;20313;-81
2021/10/25 03:05:25;;;;;;;17.80;7.90;;;13.30;99.90;;;;;;4983527;28;20280;-81
2021/10/25 03:07:52;;;;;;;19.30;8.63;;;13.30;99.90;;;;;;4982734;28;20289;-82
2021/10/25 03:10:19;;;;;;;16.73;8.30;;;13.30;99.90;;;;;;4985733;28;20198;-81
2021/10/25 03:12:46;;;;;;;19.47;8.00;;;13.30;99.90;;;;;;4985865;28;20287;-82
2021/10/25 03:15:16;;;;;;;14.93;7.40;;;13.30;99.90;;;;;;4980276;28;20202;-81
2021/10/25 03:17:43;;;;;;;17.70;8.17;;;13.30;99.90;;;;;;4977278;28;20284;-81
2021/10/25 03:20:12;;;;;;;13.03;7.10;;;13.30;99.90;;;;;;4988522;28;20232;-81
2021/10/25 03:22:41;;;;;;;14.27;6.70;;;13.30;99.90;;;;;;4988728;28;20716;-81
2021/10/25 03:25:10;;;;;;;13.83;6.30;;;13.30;99.90;;;;;;4978259;28;20218;-81
2021/10/25 03:27:37;;;;;;;19.53;7.40;;;13.40;99.90;;;;;;4985520;28;20237;-81
2021/10/25 03:30:05;;;;;;;12.77;7.30;;;13.40;99.90;;;;;;4978600;28;20213;-81
2021/10/25 03:32:32;;;;;;;13.53;6.97;;;13.40;99.90;;;;;;4978313;28;20290;-81
2021/10/25 03:34:59;;;;;;;14.87;7.23;;;13.30;99.90;;;;;;4972253;28;20761;-81
2021/10/25 03:37:28;;;;;;;15.20;7.00;;;13.40;99.90;;;;;;4987851;28;20376;-81
2021/10/25 03:39:56;;;;;;;15.23;6.77;;;13.40;99.90;;;;;;4984099;28;20198;-81
2021/10/25 03:42:28;;;;;;;13.27;7.10;;;13.40;99.90;;;;;;4980084;28;20696;-82
2021/10/25 03:45:02;;;;;;;16.30;6.83;;;13.40;99.90;;;;;;4988821;28;20320;-81
2021/10/25 03:47:33;;;;;;;17.93;6.80;;;13.30;99.90;;;;;;4973528;28;20202;-81
2021/10/25 03:50:07;;;;;;;15.63;5.87;;;13.30;99.90;;;;;;4983564;28;20202;-81
2021/10/25 03:52:38;;;;;;;10.77;5.20;;;13.30;99.90;;;;;;4985213;28;20596;-81
2021/10/25 03:55:11;;;;;;;9.17;4.43;;;13.20;99.90;;;;;;4975076;28;20203;-81
2021/10/25 03:58:15;;;;;;;7.73;3.80;;;13.20;99.90;;;;;;4980183;28;20214;-81
2021/10/25 04:26:13;;;;;;;7.03;2.20;;;;;;;;;;4943775;28;20692;-81
2021/10/25 04:28:44;;;;;;;10.00;2.53;;;;;;;;;;4958600;28;20195;-82
2021/10/25 04:31:14;;;;;;;5.20;2.00;;;;;;;;;;4960943;28;20209;-82
2021/10/25 04:33:44;;;;;;;6.27;2.30;;;;;;;;;;4951327;28;20862;-81
2021/10/25 04:36:15;;;;;;;9.17;2.57;;;;;;;;;;4957912;28;20748;-81
2021/10/25 04:38:45;;;;;;;9.00;2.20;;;;;;;;;;4942265;28;20199;-81
2021/10/25 04:41:16;;;;;;;7.00;2.30;;;;;;;;;;4966627;28;20262;-81
2021/10/25 04:43:47;;;;;;;9.97;2.17;;;;;;;;;;4958836;28;20202;-81
2021/10/25 04:46:18;;;;;;;7.87;2.40;;;;;;;;;;4952257;28;20234;-82
2021/10/25 04:48:50;;;;;;;9.47;2.67;;;;;;;;;;4958952;28;20242;-81
2021/10/25 04:51:22;;;;;;;7.50;2.60;;;;;;;;;;4965780;28;20233;-81
2021/10/25 04:53:54;;;;;;;7.97;2.70;;;;;;;;;;4972678;28;20756;-82
2021/10/25 04:56:26;;;;;;;8.10;2.50;;;;;;;;;;4984073;28;20230;-81
2021/10/25 04:58:59;;;;;;;7.33;2.50;;;;;;;;;;4978123;28;20241;-81
2021/10/25 05:01:31;;;;;;;9.50;2.50;;;;;;;;;;4975756;28;20289;-81
2021/10/25 05:04:03;;;;;;;7.23;2.50;;;;;;;;;;4985116;28;20212;-81
2021/10/25 05:06:38;;;;;;;7.67;2.70;;;;;;;;;;4974360;28;20245;-82
2021/10/25 05:09:12;;;;;;;7.23;2.60;;;;;;;;;;4978471;28;20233;-81
2021/10/25 05:11:46;;;;;;;10.90;3.53;;;;;;;;;;4986682;28;20233;-82
2021/10/25 05:14:20;;;;;;;12.93;3.17;;;;;;;;;;4975822;28;20289;-81
2021/10/25 05:16:53;;;;;;;11.07;3.03;;;;;;;;;;4975300;28;20216;-82
2021/10/25 05:19:25;;;;;;;8.40;3.17;;;;;;;;;;4976361;28;20209;-81
2021/10/25 05:21:58;;;;;;;9.90;3.00;;;;;;;;;;4988018;28;20205;-81
2021/10/25 05:24:31;;;;;;;9.47;3.03;;;;;;;;;;4987867;28;20226;-81
2021/10/25 05:27:06;;;;;;;7.57;3.10;;;;;;;;;;4980167;28;20282;-81
2021/10/25 05:29:41;;;;;;;10.33;3.60;;;;;;;;;;4979241;28;20204;-81
2021/10/25 05:32:14;;;;;;;6.13;2.97;;;;;;;;;;4979731;28;20284;-82
2021/10/25 05:34:47;;;;;;;8.53;3.23;;;;;;;;;;4991288;28;20259;-81
2021/10/25 05:37:19;;;;;;;12.37;3.50;;;;;;;;;;4989992;28;20297;-81
2021/10/25 05:39:50;;;;;;;11.40;3.40;;;;;;;;;;4983052;28;20351;-81
2021/10/25 05:42:22;;;;;;;10.63;3.90;;;;;;;;;;4989084;28;20312;-82
2021/10/25 05:44:55;;;;;;;9.30;4.63;;;;;;;;;;4990064;28;20280;-81
2021/10/25 05:47:27;;;;;;;9.53;4.03;;;;;;;;;;4980246;28;20253;-82
2021/10/25 05:49:58;;;;;;;11.80;4.67;;;;;;;;;;4986373;28;20214;-81
2021/10/25 05:52:29;;;;;;;11.63;3.93;;;;;;;;;;4974449;28;20263;-81
2021/10/25 05:54:59;;;;;;;15.17;4.00;;;;;;;;;;4985241;28;20285;-81
2021/10/25 05:57:29;;;;;;;11.60;3.60;;;;;;;;;;4981566;28;20289;-82
2021/10/25 06:00:03;;;;;;;10.60;4.00;;;;;;;;;;4990797;28;20237;-81
2021/10/25 06:02:35;;;;;;;12.47;3.83;;;;;;;;;;4986808;28;20301;-81
2021/10/25 06:05:07;;;;;;;13.57;4.00;;;;;;;;;;4978630;28;20210;-82
2021/10/25 06:07:37;;;;;;;8.83;3.67;;;;;;;;;;4990587;28;20639;-82
2021/10/25 06:10:07;;;;;;;14.57;3.80;;;;;;;;;;4977005;28;20207;-81
2021/10/25 06:12:40;;;;;;;13.30;3.97;;;;;;;;;;4987821;28;20609;-81
2021/10/25 06:15:17;;;;;;;11.73;4.10;;;;;;;;;;4978580;28;20205;-82
2021/10/25 06:17:54;;;;;;;10.00;4.40;;;;;;;;;;4983754;28;20198;-82
2021/10/25 06:20:26;;;;;;;8.83;4.73;;;;;;;;;;4974421;28;20674;-81
2021/10/25 06:22:56;;;;;;;10.70;5.33;;;;;;;;;;4980563;28;20292;-81
2021/10/25 06:25:26;;;;;;;9.70;4.83;;;;;;;;;;4982438;28;20285;-81
2021/10/25 06:27:56;;;;;;;9.57;4.70;;;;;;;;;;4975793;28;20317;-81
2021/10/25 06:30:27;;;;;;;14.27;6.40;;;;;;;;;;4980093;28;20599;-81
2021/10/25 06:32:58;;;;;;;23.70;9.70;;;;;;;;;;4986569;28;20256;-82
2021/10/25 06:35:28;;;;;;;15.90;5.83;;;;;;;;;;4971696;28;20218;-81
2021/10/25 06:38:01;;;;;;;16.47;4.17;;;;;;;;;;4989990;28;20236;-80
2021/10/25 06:40:31;;;;;;;11.17;3.83;;;;;;;;;;4978408;28;20738;-81
2021/10/25 06:43:01;;;;;;;12.77;4.47;;;;;;;;;;4974837;28;20240;-80
2021/10/25 06:45:36;;;;;;;13.93;4.17;;;;;;;;;;4981854;28;20198;-81
2021/10/25 06:48:06;;;;;;;11.80;4.43;;;;;;;;;;4977649;28;20284;-81
2021/10/25 06:50:39;;;;;;;13.87;4.10;;;;;;;;;;4982422;28;20199;-80
2021/10/25 06:53:12;;;;;;;15.87;4.40;;;;;;;;;;4987700;28;20231;-81
2021/10/25 06:55:42;;;;;;;8.40;4.30;;;;;;;;;;4979067;28;20222;-82
2021/10/25 06:58:12;;;;;;;12.67;4.23;;;;;;;;;;4982347;28;20251;-82
2021/10/25 07:00:44;;;;;;;13.00;3.90;;;;;;;;;;4983839;28;20198;-81
2021/10/25 07:03:14;;;;;;;12.67;3.63;;;;;;;;;;4987301;28;20300;-82
2021/10/25 07:05:45;;;;;;;12.33;4.03;;;;;;;;;;4978752;28;20230;-81
2021/10/25 07:08:15;;;;;;;14.07;4.23;;;;;;;;;;4979943;28;20720;-81
2021/10/25 07:10:45;;;;;;;11.23;3.90;;;;;;;;;;4990684;28;20213;-81
2021/10/25 07:13:15;;;;;;;9.47;4.13;;;;;;;;;;4990628;28;20206;-79
2021/10/25 07:15:49;;;;;;;11.53;3.70;;;;;;;;;;4986731;28;20236;-80
2021/10/25 07:18:24;;;;;;;13.20;3.97;;;;;;;;;;4981245;28;20277;-81
2021/10/25 08:03:32;;;;;;;8.30;2.43;;;;;;;;;;4948019;28;20219;-80
2021/10/25 08:06:09;;;;;;;10.73;2.60;;;;;;;;;;4913352;28;20216;-80
2021/10/25 08:08:47;;;;;;;10.45;2.75;;;;;;;;;;4969777;28;20739;-80
2021/10/25 08:11:17;;;;;;;11.23;2.83;;;;;;;;;;4970328;28;20256;-80
2021/10/25 08:13:48;;;;;;;5.50;2.00;;;;;;;;;;4970062;28;20687;-80
2021/10/25 08:16:24;;;;;;;10.13;2.57;;;;;;;;;;4970744;28;20202;-80
2021/10/25 08:19:08;;;;;;;9.33;2.77;;;;;;;;;;4970089;28;20212;-80
2021/10/25 08:21:36;;;;;;;9.87;2.60;;;;;;;;;;4984444;28;20202;-80
2021/10/25 08:24:04;;;;;;;9.37;2.90;;;;;;;;;;4989787;28;20293;-80
2021/10/25 08:26:32;;;;;;;8.40;2.50;;;;;;;;;;4989833;28;20201;-80
2021/10/25 08:29:02;;;;;;;9.63;2.83;;;;;;;;;;4988769;28;20206;-79
2021/10/25 08:31:29;;;;;;;9.73;2.83;;;;;;;;;;4989904;28;20293;-79
2021/10/25 08:34:25;;;;;;;14.07;3.10;;;;;;;;;;4989390;28;20286;-79
2021/10/25 08:39:51;;;;;;;10.10;3.20;;;;;;;;;;4989465;28;20205;-79
2021/10/25 08:42:19;;;;;;;9.77;2.97;;;;;;;;;;4989017;28;20254;-80
2021/10/25 08:44:53;;;;;;;9.83;2.73;;;;;;;;;;4990003;28;20229;-80
2021/10/25 08:47:24;;;;;;;7.53;2.80;;;;;;;;;;4992379;28;20201;-80
2021/10/25 08:49:51;;;;;;;11.37;3.80;;;;;;;;;;4981557;28;20785;-79
2021/10/25 08:52:21;;;;;;;11.77;3.90;;;;;;;;;;4990736;28;20634;-80
2021/10/25 08:54:49;;;;;;;12.37;4.00;;;;;;;;;;4992593;28;20292;-80
2021/10/25 08:57:16;;;;;;;14.07;4.30;;;;;;;;;;4992346;28;20288;-80
2021/10/25 08:59:44;;;;;;;10.90;3.33;;;;;;;;;;4992862;28;20642;-79
2021/10/25 09:02:11;;;;;;;10.27;3.80;;;;;;;;;;4992192;28;20305;-79
2021/10/25 09:04:38;;;;;;;12.20;3.83;;;;;;;;;;4992826;28;20236;-80
2021/10/25 09:07:06;;;;;;;10.40;3.80;;;;;;;;;;4992628;28;20285;-79
2021/10/25 09:09:34;;;;;;;14.23;4.13;;;;;;;;;;4992273;28;20728;-80
2021/10/25 09:12:03;;;;;;;11.47;4.90;;;;;;;;;;4992076;28;20198;-80
2021/10/25 09:14:30;;;;;;;10.50;4.87;;;;;;;;;;4991558;28;20198;-80
2021/10/25 09:16:59;;;;;;;11.17;4.40;;;;;;;;;;4987489;28;20197;-79
2021/10/25 09:19:26;;;;;;;11.33;4.67;;;;;;;;;;4991295;28;20264;-80
2021/10/25 09:22:04;;;;;;;9.40;4.27;;;;;;;;;;4991924;28;20271;-79
2021/10/25 09:24:32;;;;;;;9.60;3.43;;;;;;;;;;4992337;28;20284;-80
2021/10/25 09:27:04;;;;;;;7.00;2.90;;;;;;;;;;4992026;28;20285;-80
2021/10/25 09:29:33;;;;;;;7.73;3.67;;;;;;;;;;4992295;28;20226;-80
2021/10/25 09:32:06;;;;;;;8.13;3.23;;;;;;;;;;4991793;28;20255;-79
2021/10/25 09:34:37;;;;;;;8.10;3.13;;;;;;;;;;4981628;28;20206;-80
2021/10/25 09:37:09;;;;;;;8.43;4.13;;;;;;;;;;4972402;28;20289;-80
2021/10/25 09:39:45;;;;;;;6.53;3.10;;;;;;;;;;4972486;28;20213;-80
2021/10/25 09:42:47;;;;;;;8.17;3.73;;;;;;;;;;4972046;28;20238;-80
2021/10/25 09:45:28;;;;;;;6.13;2.90;;;;;;;;;;4972398;28;20206;-80
2021/10/25 09:50:46;;;;;;;6.97;3.40;;;;;;;;;;4972476;28;20230;-80
2021/10/25 09:53:14;;;;;;;7.30;4.20;;;;;;;;;;4988488;28;20202;-80
2021/10/25 09:55:45;;;;;;;9.87;3.33;;;;;;;;;;4991394;28;20617;-80
2021/10/25 09:58:18;;;;;;;6.20;2.97;;;;;;;;;;4991766;28;20290;-80
2021/10/25 10:00:46;;;;;;;9.73;4.07;;;;;;;;;;4992147;28;20205;-80
2021/10/25 10:03:13;;;;;;;6.10;3.10;;;;;;;;;;4988551;28;20279;-80
2021/10/25 10:05:41;;;;;;;8.27;3.53;;;;;;;;;;4991436;28;20292;-80
2021/10/25 10:08:10;;;;;;;8.70;4.10;;;;;;;;;;4975845;28;20202;-80
2021/10/25 10:10:37;;;;;;;9.73;3.63;;;;;;;;;;4971527;28;20230;-80
2021/10/25 10:13:05;;;;;;;11.00;4.00;;;;;;;;;;4972400;28;20230;-80
2021/10/25 10:15:34;;;;;;;9.93;3.70;;;;;;;;;;4971672;28;20234;-80
2021/10/25 10:18:06;;;;;;;9.97;3.40;;;;;;;;;;4972200;28;20203;-80
2021/10/25 10:20:35;;;;;;;9.03;3.77;;;;;;;;;;4971964;28;20202;-81
2021/10/25 10:23:05;;;;;;;7.13;3.20;;;;;;;;;;4984871;28;20677;-80
2021/10/25 10:25:34;;;;;;;6.80;2.90;;;;;;;;;;4991164;28;20704;-80
2021/10/25 10:28:02;;;;;;;5.40;1.93;;;;;;;;;;4989950;28;20198;-80
2021/10/25 10:30:30;;;;;;;3.33;2.27;;;;;;;;;;4990399;28;20305;-80
2021/10/25 10:33:02;;;;;;;7.27;2.40;;;;;;;;;;4991532;28;20244;-80
2021/10/25 10:35:39;;;;;;;3.70;1.97;;;;;;;;;;4991144;28;20237;-80
2021/10/25 10:38:06;;;;;;;6.20;1.90;;;;;;;;;;4991229;28;20255;-80
2021/10/25 10:40:38;;;;;;;3.50;2.03;;;;;;;;;;4990816;28;20311;-80
2021/10/25 10:43:05;;;;;;;3.70;1.97;;;;;;;;;;4974337;28;20256;-80
2021/10/25 10:45:32;;;;;;;5.23;2.13;;;;;;;;;;4976404;28;20591;-80
2021/10/25 10:48:01;;;;;;;5.63;2.87;;;;;;;;;;4991102;28;20289;-80
2021/10/25 10:50:34;;;;;;;7.07;2.90;;;;;;;;;;4990989;28;20234;-80
2021/10/25 10:53:06;;;;;;;8.90;3.10;;;;;;;;;;4990589;28;20210;-80
2021/10/25 10:55:38;;;;;;;6.90;3.30;;;;;;;;;;4990809;28;20249;-80
2021/10/25 11:01:02;;;;;;;6.95;3.00;;;;;;;;;;4974712;28;20562;-80
2021/10/25 11:03:29;;;;;;;7.65;3.28;;;;;;;;;;4990468;28;20229;-80
2021/10/25 11:06:01;;;;;;;6.90;3.22;;;;;;;;;;4981642;28;20203;-80
2021/10/25 11:08:32;;;;;;;9.50;3.00;;;;;;;;;;4970369;28;20204;-79
2021/10/25 11:11:01;;;;;;;9.35;3.13;;;;;;;;;;4971258;28;20234;-80
2021/10/25 11:13:30;;;;;;;8.63;2.88;;;;;;;;;;4971142;28;20206;-79
2021/10/25 11:16:01;;;;;;;7.78;2.33;;;;;;;;;;4985050;28;20206;-80
2021/10/25 11:18:29;;;;;;;6.90;2.33;;;;;;;;;;4990414;28;20217;-80
2021/10/25 11:21:08;;;;;;;6.25;2.00;;;;;;;;;;4990534;28;20198;-80
2021/10/25 11:23:40;;;;;;;7.97;1.85;;;;;;;;;;4990238;28;20221;-80
2021/10/25 11:26:11;;;;;;;6.07;1.92;;;;;;;;;;4990274;28;20241;-80
2021/10/25 11:28:38;;;;;;;7.18;1.83;;;;;;;;;;4989928;28;20237;-80
2021/10/25 11:31:06;;;;;;;4.63;1.58;;;;;;;;;;4989755;28;20631;-80
2021/10/25 11:33:33;;;;;;;5.13;1.65;;;;;;;;;;4990680;28;20301;-80
2021/10/25 11:36:01;;;;;;;6.70;1.90;;;;;;;;;;4989677;28;20693;-80
2021/10/25 11:38:33;;;;;;;6.78;1.90;;;;;;;;;;4990381;28;20232;-80
2021/10/25 11:41:04;;;;;;;5.60;2.08;;;;;;;;;;4989686;28;20713;-80
2021/10/25 11:43:32;;;;;;;5.97;1.58;;;;;;;;;;4990233;28;20198;-80
2021/10/25 11:45:59;;;;;;;5.43;1.75;;;;;;;;;;4990237;28;20212;-80
2021/10/25 11:48:30;;;;;;;5.00;1.85;;;;;;;;;;4989463;28;20210;-80
2021/10/25 11:51:01;;;;;;;7.97;2.20;;;;;;;;;;4988908;28;20598;-80
2021/10/25 11:53:30;;;;;;;7.50;2.42;;;;;;;;;;4990087;28;20202;-80
2021/10/25 11:55:58;;;;;;;10.80;2.22;;;;;;;;;;4989672;28;20220;-80
2021/10/25 11:58:27;;;;;;;8.07;2.30;;;;;;;;;;4990046;28;20209;-80
2021/10/25 12:00:55;;;;;;;6.03;2.50;;;;;;;;;;4989557;28;20716;-79
2021/10/25 12:03:26;;;;;;;6.28;2.25;;;;;;;;;;4990002;28;20683;-80
2021/10/25 12:05:53;;;;;;;5.13;1.88;;;;;;;;;;4989060;28;20569;-80
2021/10/25 12:08:21;;;;;;;8.10;2.20;;;;;;;;;;4989924;28;20204;-80
2021/10/25 12:10:50;;;;;;;6.70;1.65;;;;;;;;;;4989754;28;20230;-80
2021/10/25 12:13:18;;;;;;;4.38;1.40;;;;;;;;;;4990043;28;20264;-80
2021/10/25 12:15:50;;;;;;;4.57;1.27;;;;;;;;;;4989960;28;20206;-80
2021/10/25 12:18:19;;;;;;;4.03;1.20;;;;;;;;;;4989993;28;20559;-80
2021/10/25 12:20:48;;;;;;;5.65;1.40;;;;;;;;;;4985357;28;20206;-80
2021/10/25 12:23:16;;;;;;;3.42;0.80;;;;;;;;;;4984141;28;20210;-80
2021/10/25 12:25:45;;;;;;;4.68;1.08;;;;;;;;;;4989951;28;20629;-80
2021/10/25 12:28:14;;;;;;;3.42;1.23;;;;;;;;;;4988855;28;20202;-80
2021/10/25 12:30:42;;;;;;;5.40;1.10;;;;;;;;;;4989453;28;20261;-80
2021/10/25 12:33:09;;;;;;;6.05;1.40;;;;;;;;;;4989589;28;20626;-80
2021/10/25 12:35:38;;;;;;;6.15;1.38;;;;;;;;;;4989302;28;20237;-80
2021/10/25 12:38:06;;;;;;;6.55;1.30;;;;;;;;;;4989215;28;20210;-80
2021/10/25 12:40:38;;;;;;;5.90;1.48;;;;;;;;;;4989189;28;20725;-80
2021/10/25 12:43:06;;;;;;;5.13;1.60;;;;;;;;;;4989089;28;20202;-80
2021/10/25 12:45:40;;;;;;;5.65;1.65;;;;;;;;;;4989350;28;20248;-80
2021/10/25 12:48:07;;;;;;;4.55;1.38;;;;;;;;;;4988547;28;20259;-80
2021/10/25 12:50:36;;;;;;;3.75;1.15;;;;;;;;;;4971372;28;20254;-80
2021/10/25 12:53:05;;;;;;;3.90;1.45;;;;;;;;;;4989117;28;20665;-80
2021/10/25 12:55:32;;;;;;;7.05;2.10;;;;;;;;;;4989225;28;20206;-80
2021/10/25 12:58:00;;;;;;;6.00;2.35;;;;;;;;;;4989067;28;20673;-80
2021/10/25 13:00:28;;;;;;;5.35;1.80;;;;;;;;;;4988882;28;20716;-80
2021/10/25 13:02:56;;;;;;;5.32;2.08;;;;;;;;;;4988808;28;20308;-80
2021/10/25 13:05:25;;;;;;;6.75;1.75;;;;;;;;;;4987429;28;20206;-80
2021/10/25 13:07:53;;;;;;;6.00;1.45;;;;;;;;;;4989069;28;20293;-80
2021/10/25 13:10:21;;;;;;;5.25;1.30;;;;;;;;;;4988770;28;20644;-80
2021/10/25 13:12:49;;;;;;;6.93;2.42;;;;;;;;;;4989002;28;20623;-80
2021/10/25 13:15:16;;;;;;;6.43;2.20;;;;;;;;;;4988873;28;20237;-80
2021/10/25 13:17:43;;;;;;;5.15;1.77;;;;;;;;;;4988607;28;20238;-80
2021/10/25 13:20:14;;;;;;;6.43;2.03;;;;;;;;;;4988275;28;20628;-80
2021/10/25 13:22:41;;;;;;;4.07;1.17;;;;;;;;;;4988796;28;20704;-80
2021/10/25 13:25:09;;;;;;;6.38;1.67;;;;;;;;;;4988175;28;20249;-80
2021/10/25 13:27:37;;;;;;;4.93;1.13;;;;;;;;;;4988901;28;20237;-80
2021/10/25 13:30:05;;;;;;;5.07;1.25;;;;;;;;;;4989039;28;20212;-80
2021/10/25 13:32:32;;;;;;;9.30;1.83;;;;;;;;;;4991037;28;20838;-80
2021/10/25 13:35:00;;;;;;;6.32;1.50;;;;;;;;;;4992252;28;20244;-80
2021/10/25 13:37:29;;;;;;;4.30;1.40;;;;;;;;;;4991364;28;20346;-80
2021/10/25 13:39:56;;;;;;;5.15;1.67;;;;;;;;;;4991804;28;20233;-80
2021/10/25 13:42:24;;;;;;;4.75;1.48;;;;;;;;;;4991442;28;20238;-80
2021/10/25 13:44:51;;;;;;;6.10;1.60;;;;;;;;;;4991909;28;20296;-80
2021/10/25 13:47:19;;;;;;;8.55;1.33;;;;;;;;;;4991550;28;20216;-80
2021/10/25 13:49:48;;;;;;;4.72;1.20;;;;;;;;;;4992076;28;21016;-80
2021/10/25 13:52:15;;;;;;;3.75;1.25;;;;;;;;;;4984817;28;20644;-80
2021/10/25 13:54:44;;;;;;;6.75;1.35;;;;;;;;;;4972171;28;20293;-80
2021/10/25 13:57:12;;;;;;;4.45;1.42;;;;;;;;;;4972680;28;20206;-80
2021/10/25 13:59:39;;;;;;;5.20;1.55;;;;;;;;;;4972345;28;20256;-80
2021/10/25 14:02:10;;;;;;;7.03;1.77;;;;;;;;;;4977984;28;20218;-80
2021/10/25 14:04:40;;;;;;;6.38;1.55;;;;;;;;;;4986325;28;20285;-80
2021/10/25 14:07:13;;;;;;;7.93;1.88;;;;;;;;;;4991320;28;20202;-80
2021/10/25 14:09:43;;;;;;;7.90;1.88;;;;;;;;;;4982759;28;20199;-80
2021/10/25 14:12:17;;;;;;;7.47;1.52;;;;;;;;;;4972198;28;20276;-80
2021/10/25 14:14:46;;;;;;;7.33;2.30;;;;;;;;;;4972355;28;20259;-80
2021/10/25 14:17:13;;;;;;;6.30;1.90;;;;;;;;;;4972205;28;20206;-80
2021/10/25 14:19:41;;;;;;;4.57;1.87;;;;;;;;;;4971822;28;20721;-80
2021/10/25 14:22:08;;;;;;;5.60;2.00;;;;;;;;;;4978385;28;20641;-80
2021/10/25 14:24:35;;;;;;;7.97;2.08;;;;;;;;;;4991208;28;20293;-80
2021/10/25 14:27:02;;;;;;;6.72;1.77;;;;;;;;;;4991145;28;20661;-80
2021/10/25 14:29:31;;;;;;;7.75;2.15;;;;;;;;;;4991327;28;20295;-80
2021/10/25 14:31:58;;;;;;;6.82;1.83;;;;;;;;;;4990728;28;20320;-80
2021/10/25 14:34:25;;;;;;;8.68;1.92;;;;;;;;;;4991256;28;20288;-80
2021/10/25 14:36:54;;;;;;;5.03;2.00;;;;;;;;;;4979271;28;20297;-79
2021/10/25 14:39:23;;;;;;;9.57;1.73;;;;;;;;;;4971946;28;20289;-79
2021/10/25 14:41:56;;;;;;;4.60;1.93;;;;;;;;;;4970940;28;20739;-80
2021/10/25 14:44:28;;;;;;;7.87;2.23;;;;;;;;;;4971089;28;20540;-80
2021/10/25 14:55:15;;;;;;;7.00;1.50;;;;;;;;;;4990608;28;20669;-79
2021/10/25 14:57:42;;;;;;;6.20;1.80;;;;;;;;;;4991087;28;20210;-80
2021/10/25 15:00:11;;;;;;;5.83;1.70;;;;;;;;;;4990723;28;20288;-80
2021/10/25 15:02:40;;;;;;;9.80;2.50;;;;;;;;;;4990692;28;20221;-80
2021/10/25 15:05:10;;;;;;;7.13;2.80;;;;;;;;;;4990741;28;20201;-80
2021/10/25 15:07:37;;;;;;;10.30;5.77;;;;;;;;;;4991135;28;20640;-79
2021/10/25 15:10:05;;;;;;;12.70;7.53;;;;;;;;;;4984130;28;20289;-80
2021/10/25 15:12:33;;;;;;;9.47;6.13;;;;;;;;;;4987603;28;20252;-79
2021/10/25 15:15:01;;;;;;;9.80;5.87;;;;;;;;;;4990331;28;20206;-79
2021/10/25 15:17:28;;;;;;;11.10;5.70;;;;;;;;;;4990623;28;20206;-79
2021/10/25 15:19:57;;;;;;;9.13;3.87;;;;;;;;;;4990244;28;20708;-80
2021/10/25 15:22:24;;;;;;;9.90;4.23;;;;;;;;;;4990669;28;20290;-79
2021/10/25 15:24:53;;;;;;;9.47;5.50;;;;;;;;;;4990573;28;20285;-80
2021/10/25 15:27:22;;;;;;;14.50;7.77;;;;;;;;;;4990583;28;20301;-80
2021/10/25 15:29:50;;;;;;;10.53;5.47;;;;;;;;;;4990054;28;20292;-79
2021/10/25 15:32:19;;;;;;;10.43;5.43;;;;;;;;;;4990674;28;20226;-80
2021/10/25 15:34:46;;;;;;;8.80;3.87;;;;;;;;;;4990460;28;20206;-80
2021/10/25 15:37:15;;;;;;;5.23;2.20;;;;;;;;;;4990454;28;20296;-80
2021/10/25 15:39:43;;;;;;;5.13;2.37;;;;;;;;;;4990806;28;20202;-80